Time;durP1;ratioP1;P1;durP2;ratioP2;P2;SDS_P1;SDS_P2;PMS_P1;PMS_P2;Temp;Humidity;BMP_temperature;BMP_pressure;BME280_temperature;BME280_humidity;BME280_pressure;Samples;Min_cycle;Max_cycle;Signal;HPM_P1;HPM_P2
2021/04/23 00:00:37;;;;;;;14.70;6.53;;;7.00;85.70;;;;;;4968236;28;20042;-65
2021/04/23 00:03:13;;;;;;;24.88;6.53;;;7.00;85.50;;;;;;4964120;28;20038;-65
2021/04/23 00:05:40;;;;;;;17.73;6.00;;;7.10;85.60;;;;;;4965410;28;20027;-65
2021/04/23 00:08:05;;;;;;;20.08;6.60;;;7.10;85.40;;;;;;4965253;28;20455;-65
2021/04/23 00:10:32;;;;;;;22.02;6.05;;;7.10;85.20;;;;;;4967034;28;20117;-65
2021/04/23 00:12:57;;;;;;;15.25;5.63;;;7.10;85.00;;;;;;4965623;28;20023;-65
2021/04/23 00:15:23;;;;;;;19.88;5.20;;;7.10;85.00;;;;;;4968267;28;20549;-65
2021/04/23 00:17:49;;;;;;;17.92;5.85;;;7.10;85.10;;;;;;4967337;28;20024;-65
2021/04/23 00:20:24;;;;;;;19.83;5.90;;;7.00;84.80;;;;;;4966640;28;20508;-65
2021/04/23 00:22:50;;;;;;;15.30;5.70;;;7.00;84.90;;;;;;4963826;28;20325;-65
2021/04/23 00:25:25;;;;;;;16.33;5.18;;;6.90;84.70;;;;;;4965116;28;20373;-65
2021/04/23 00:27:52;;;;;;;13.55;5.20;;;7.00;84.50;;;;;;4964834;28;20171;-65
2021/04/23 00:30:19;;;;;;;16.35;4.55;;;6.90;84.80;;;;;;4967347;28;20058;-65
2021/04/23 00:32:52;;;;;;;13.85;5.45;;;6.90;84.70;;;;;;4964047;28;20027;-65
2021/04/23 00:35:19;;;;;;;18.55;5.53;;;6.80;85.20;;;;;;4967341;28;20067;-65
2021/04/23 00:37:48;;;;;;;18.85;5.32;;;6.80;84.50;;;;;;4964103;28;20043;-65
2021/04/23 00:40:26;;;;;;;18.80;5.70;;;6.80;84.50;;;;;;4965875;28;20054;-65
2021/04/23 00:42:52;;;;;;;12.32;4.90;;;6.80;84.50;;;;;;4965516;28;20039;-64
2021/04/23 00:45:21;;;;;;;17.83;5.82;;;6.80;84.60;;;;;;4978484;28;20031;-65
2021/04/23 00:47:50;;;;;;;14.80;5.10;;;6.80;84.80;;;;;;4978555;28;20057;-64
2021/04/23 00:50:39;;;;;;;18.58;5.30;;;6.80;84.70;;;;;;4969982;28;20556;-65
2021/04/23 00:53:07;;;;;;;16.13;5.13;;;6.70;85.00;;;;;;4972337;28;20388;-65
2021/04/23 00:55:33;;;;;;;15.27;5.68;;;6.70;84.90;;;;;;4966630;28;20106;-65
2021/04/23 00:57:59;;;;;;;20.65;5.55;;;6.60;84.90;;;;;;4971225;28;20027;-65
2021/04/23 01:00:26;;;;;;;17.95;5.45;;;6.60;84.70;;;;;;4974881;28;20039;-65
2021/04/23 01:02:51;;;;;;;12.30;5.32;;;6.70;84.80;;;;;;4967024;28;20074;-66
2021/04/23 01:05:18;;;;;;;14.95;5.40;;;6.60;84.50;;;;;;4966596;28;20097;-65
2021/04/23 01:07:47;;;;;;;14.63;5.07;;;6.70;84.50;;;;;;4965154;28;20031;-66
2021/04/23 01:10:14;;;;;;;16.58;5.47;;;6.70;84.40;;;;;;4965121;28;20031;-65
2021/04/23 01:12:40;;;;;;;20.13;5.88;;;6.70;84.50;;;;;;4967592;28;20425;-65
2021/04/23 01:15:10;;;;;;;18.45;5.75;;;6.60;84.50;;;;;;4966502;28;20497;-65
2021/04/23 01:17:36;;;;;;;18.85;5.65;;;6.60;84.60;;;;;;4965847;28;20493;-65
2021/04/23 01:20:05;;;;;;;15.93;5.68;;;6.60;84.90;;;;;;4968616;28;20038;-65
2021/04/23 01:22:30;;;;;;;17.05;5.45;;;6.60;84.80;;;;;;4967817;28;20043;-65
2021/04/23 01:24:56;;;;;;;16.20;4.95;;;6.60;84.50;;;;;;4968052;28;20030;-66
2021/04/23 01:27:22;;;;;;;13.65;5.15;;;6.70;84.60;;;;;;4967164;28;20059;-66
2021/04/23 01:29:48;;;;;;;18.73;5.40;;;6.70;84.60;;;;;;4967358;28;20043;-65
2021/04/23 01:32:13;;;;;;;17.45;5.20;;;6.60;85.00;;;;;;4966247;28;20035;-66
2021/04/23 01:34:41;;;;;;;19.67;5.88;;;6.60;85.00;;;;;;4967799;28;20030;-65
2021/04/23 01:37:08;;;;;;;15.55;5.47;;;6.60;85.00;;;;;;4968722;28;20084;-66
2021/04/23 01:39:38;;;;;;;13.88;5.22;;;6.60;85.20;;;;;;4963611;28;20037;-66
2021/04/23 01:42:05;;;;;;;18.17;5.25;;;6.60;85.40;;;;;;4966686;28;20484;-65
2021/04/23 01:44:32;;;;;;;13.57;5.47;;;6.60;85.20;;;;;;4965674;28;20038;-66
2021/04/23 01:46:58;;;;;;;21.15;7.50;;;6.70;85.00;;;;;;4966218;28;20109;-65
2021/04/23 01:49:25;;;;;;;16.48;5.03;;;6.70;85.00;;;;;;4963127;28;20023;-65
2021/04/23 01:51:54;;;;;;;13.93;5.03;;;6.70;85.20;;;;;;4963348;28;20050;-65
2021/04/23 01:54:22;;;;;;;16.77;5.07;;;6.70;84.90;;;;;;4967915;28;20029;-65
2021/04/23 01:56:49;;;;;;;14.57;5.28;;;6.80;85.00;;;;;;4966755;28;20034;-65
2021/04/23 01:59:16;;;;;;;22.88;5.82;;;6.80;85.00;;;;;;4963468;28;20039;-65
2021/04/23 02:01:42;;;;;;;14.75;5.57;;;6.80;85.40;;;;;;4970275;28;20101;-65
2021/04/23 02:04:10;;;;;;;18.77;6.00;;;6.80;85.30;;;;;;4963751;28;20038;-65
2021/04/23 02:06:36;;;;;;;20.27;5.20;;;6.70;85.60;;;;;;4967447;28;20785;-65
2021/04/23 02:09:08;;;;;;;18.85;6.32;;;6.70;85.40;;;;;;4965973;28;20643;-65
2021/04/23 02:11:39;;;;;;;20.40;5.68;;;6.70;85.30;;;;;;4964959;28;20035;-65
2021/04/23 02:14:04;;;;;;;15.95;4.20;;;6.70;85.60;;;;;;4983880;28;20081;-65
2021/04/23 02:16:31;;;;;;;18.40;4.85;;;6.60;85.30;;;;;;4965405;28;20469;-65
2021/04/23 02:18:56;;;;;;;21.23;5.10;;;6.60;85.10;;;;;;4960696;28;20553;-65
2021/04/23 02:21:22;;;;;;;18.55;4.70;;;6.70;85.00;;;;;;4964326;28;20066;-65
2021/04/23 02:23:49;;;;;;;15.00;4.82;;;6.70;84.90;;;;;;4962329;28;20101;-65
2021/04/23 02:26:15;;;;;;;18.15;5.22;;;6.70;84.70;;;;;;4963384;28;20423;-65
2021/04/23 02:28:47;;;;;;;14.73;4.25;;;6.70;84.30;;;;;;4966419;28;20101;-65
2021/04/23 02:31:20;;;;;;;17.90;4.53;;;6.70;83.90;;;;;;4962785;28;20084;-65
2021/04/23 02:33:48;;;;;;;18.17;4.68;;;6.70;83.80;;;;;;4965315;28;20042;-65
2021/04/23 02:36:15;;;;;;;16.67;4.43;;;6.70;83.30;;;;;;4964087;28;20563;-65
2021/04/23 02:38:42;;;;;;;13.85;4.47;;;6.60;83.10;;;;;;4964311;28;20038;-65
2021/04/23 02:41:08;;;;;;;15.23;3.75;;;6.60;82.60;;;;;;4963739;28;20046;-65
2021/04/23 02:43:45;;;;;;;12.10;3.90;;;6.70;81.90;;;;;;4964583;28;20027;-65
2021/04/23 02:46:13;;;;;;;16.95;3.75;;;6.70;81.90;;;;;;4962921;28;20031;-65
2021/04/23 02:48:43;;;;;;;22.60;3.92;;;6.70;81.70;;;;;;4963047;28;20039;-65
2021/04/23 02:51:20;;;;;;;12.50;3.33;;;6.60;81.60;;;;;;4965629;28;20027;-65
2021/04/23 02:53:47;;;;;;;13.80;3.80;;;6.60;81.60;;;;;;4965490;28;20054;-65
2021/04/23 02:56:15;;;;;;;13.52;3.53;;;6.70;81.30;;;;;;4964435;28;20027;-65
2021/04/23 02:58:41;;;;;;;17.13;3.97;;;6.60;81.10;;;;;;4960567;28;20042;-65
2021/04/23 03:01:19;;;;;;;15.93;4.10;;;6.60;81.10;;;;;;4963406;28;20019;-65
2021/04/23 03:03:45;;;;;;;8.85;3.33;;;6.60;81.00;;;;;;4961585;28;20034;-65
2021/04/23 03:06:12;;;;;;;11.95;3.05;;;6.70;80.90;;;;;;4963196;28;20041;-65
2021/04/23 03:08:38;;;;;;;14.57;4.50;;;6.70;80.50;;;;;;4967067;28;20041;-65
2021/04/23 03:11:11;;;;;;;10.70;3.47;;;6.70;80.40;;;;;;4969252;28;20043;-66
2021/04/23 03:13:40;;;;;;;15.55;3.28;;;6.70;80.20;;;;;;4974818;28;20039;-64
2021/04/23 03:16:07;;;;;;;14.13;4.18;;;6.70;80.00;;;;;;4966915;28;20081;-65
2021/04/23 03:18:35;;;;;;;20.83;3.97;;;6.70;78.30;;;;;;4963595;28;20445;-65
2021/04/23 03:21:03;;;;;;;9.75;3.03;;;6.70;78.00;;;;;;4965249;28;20023;-65
2021/04/23 03:23:29;;;;;;;14.43;3.80;;;6.70;77.90;;;;;;4961121;28;20027;-65
2021/04/23 03:25:57;;;;;;;15.32;3.15;;;6.70;77.70;;;;;;4965011;28;20041;-65
2021/04/23 03:28:23;;;;;;;13.70;3.35;;;6.70;77.20;;;;;;4968529;28;20034;-65
2021/04/23 03:30:49;;;;;;;15.65;2.80;;;6.70;77.10;;;;;;4964903;28;20121;-65
2021/04/23 03:33:16;;;;;;;13.88;2.97;;;6.70;77.00;;;;;;4964647;28;20023;-65
2021/04/23 03:35:46;;;;;;;13.57;3.08;;;6.70;77.00;;;;;;4966440;28;20034;-65
2021/04/23 03:38:12;;;;;;;11.05;3.03;;;6.70;76.80;;;;;;4960953;28;20532;-65
2021/04/23 03:40:40;;;;;;;16.63;3.92;;;6.70;76.60;;;;;;4962932;28;20062;-65
2021/04/23 03:43:07;;;;;;;13.65;3.13;;;6.70;76.90;;;;;;4966370;28;20039;-65
2021/04/23 03:45:37;;;;;;;9.82;2.67;;;6.70;76.80;;;;;;4960768;28;20023;-65
2021/04/23 03:48:05;;;;;;;11.27;2.92;;;6.80;76.70;;;;;;4960536;28;20392;-65
2021/04/23 03:50:32;;;;;;;22.75;3.35;;;6.70;76.60;;;;;;4967457;28;20058;-65
2021/04/23 03:52:59;;;;;;;11.95;3.35;;;6.70;76.20;;;;;;4961688;28;20034;-65
2021/04/23 03:55:30;;;;;;;12.07;2.83;;;6.70;76.40;;;;;;4968376;28;20035;-65
2021/04/23 03:57:58;;;;;;;14.07;3.22;;;6.70;76.20;;;;;;4969008;28;20117;-65
2021/04/23 04:00:36;;;;;;;12.68;2.53;;;6.80;76.20;;;;;;4963806;28;20074;-65
2021/04/23 04:03:02;;;;;;;13.35;3.10;;;6.80;75.90;;;;;;4962040;28;20417;-66
2021/04/23 04:05:28;;;;;;;11.43;3.00;;;6.70;76.00;;;;;;4966461;28;20031;-66
2021/04/23 04:07:53;;;;;;;12.23;3.08;;;6.70;76.00;;;;;;4960957;28;20039;-65
2021/04/23 04:10:19;;;;;;;18.88;3.42;;;6.80;76.00;;;;;;4964785;28;20034;-66
2021/04/23 04:12:47;;;;;;;21.80;3.65;;;6.70;76.10;;;;;;4966730;28;20042;-66
2021/04/23 04:15:13;;;;;;;9.52;3.15;;;6.80;76.00;;;;;;4962738;28;20047;-65
2021/04/23 04:17:39;;;;;;;15.18;3.35;;;6.80;76.00;;;;;;4958992;28;20039;-65
2021/04/23 04:20:09;;;;;;;9.55;2.83;;;6.80;76.00;;;;;;4957653;28;20035;-65
2021/04/23 04:22:34;;;;;;;18.95;2.67;;;6.80;75.80;;;;;;4964023;28;20035;-65
2021/04/23 04:25:01;;;;;;;10.43;2.90;;;6.80;75.70;;;;;;4965848;28;20035;-65
2021/04/23 04:27:27;;;;;;;13.10;2.80;;;6.80;75.60;;;;;;4965005;28;20104;-65
2021/04/23 04:29:52;;;;;;;11.98;2.42;;;6.80;74.80;;;;;;4964387;28;21063;-65
2021/04/23 04:32:19;;;;;;;9.90;2.58;;;6.80;74.70;;;;;;4962425;28;20046;-65
2021/04/23 04:34:46;;;;;;;13.45;2.80;;;6.80;74.40;;;;;;4967265;28;20027;-65
2021/04/23 04:37:12;;;;;;;16.30;2.85;;;6.80;73.80;;;;;;4966925;28;20874;-65
2021/04/23 04:39:38;;;;;;;12.10;2.47;;;6.80;73.70;;;;;;4964855;28;20162;-65
2021/04/23 04:42:05;;;;;;;10.75;2.10;;;6.80;73.90;;;;;;4969767;28;20397;-64
2021/04/23 04:44:32;;;;;;;11.50;2.30;;;6.80;73.80;;;;;;4965255;28;20024;-66
2021/04/23 04:46:57;;;;;;;14.82;2.70;;;6.80;73.90;;;;;;4967081;28;20102;-65
2021/04/23 04:49:23;;;;;;;15.30;2.45;;;6.80;73.90;;;;;;4965156;28;20113;-65
2021/04/23 04:51:49;;;;;;;13.30;2.60;;;6.80;73.50;;;;;;4965009;28;20138;-65
2021/04/23 04:54:15;;;;;;;12.95;2.22;;;6.80;73.70;;;;;;4963670;28;20039;-66
2021/04/23 04:56:41;;;;;;;9.77;2.08;;;6.80;73.70;;;;;;4963744;28;20057;-66
2021/04/23 04:59:06;;;;;;;10.98;2.25;;;6.70;73.70;;;;;;4964977;28;20031;-66
2021/04/23 05:01:32;;;;;;;12.85;2.35;;;6.70;73.90;;;;;;4968550;23;20086;-87
2021/04/23 05:03:58;;;;;;;17.35;2.80;;;6.70;74.00;;;;;;4971856;28;20035;-88
2021/04/23 05:06:24;;;;;;;14.10;2.90;;;6.80;74.20;;;;;;4970232;28;20039;-87
2021/04/23 05:08:49;;;;;;;13.57;2.40;;;6.80;74.00;;;;;;4958607;29;20044;-88
2021/04/23 05:11:17;;;;;;;13.43;2.58;;;6.80;74.10;;;;;;4930146;28;20036;-87
2021/04/23 05:13:43;;;;;;;16.42;3.03;;;6.80;74.30;;;;;;4951138;29;20095;-87
2021/04/23 05:16:08;;;;;;;15.00;2.10;;;6.80;74.30;;;;;;4938238;29;20024;-87
2021/04/23 05:18:34;;;;;;;18.92;2.90;;;6.80;74.50;;;;;;4922209;29;20034;-84
2021/04/23 05:21:01;;;;;;;12.68;2.67;;;6.80;74.70;;;;;;4935341;29;20580;-87
2021/04/23 05:23:27;;;;;;;15.32;2.17;;;6.80;74.90;;;;;;4945677;29;20034;-87
2021/04/23 05:25:53;;;;;;;14.93;2.33;;;6.80;75.00;;;;;;4943441;28;20036;-86
2021/04/23 05:28:19;;;;;;;13.45;2.45;;;6.80;74.90;;;;;;4939207;28;20027;-86
2021/04/23 05:30:47;;;;;;;14.13;2.72;;;6.90;75.00;;;;;;4916963;29;20042;-86
2021/04/23 05:33:13;;;;;;;15.18;3.78;;;6.90;75.10;;;;;;4956322;28;20020;-85
2021/04/23 05:35:41;;;;;;;12.82;2.45;;;6.90;75.10;;;;;;4933233;29;20038;-87
2021/04/23 05:38:09;;;;;;;13.50;2.70;;;6.90;75.10;;;;;;4958892;28;20034;-88
2021/04/23 05:40:45;;;;;;;9.27;2.13;;;6.90;74.90;;;;;;4944972;29;20103;-85
2021/04/23 05:43:13;;;;;;;10.40;2.20;;;6.90;75.20;;;;;;4947756;28;20032;-85
2021/04/23 05:45:40;;;;;;;20.05;2.90;;;7.00;75.30;;;;;;4926411;29;20024;-86
2021/04/23 05:48:08;;;;;;;8.82;2.58;;;7.00;75.20;;;;;;4945340;28;20041;-87
2021/04/23 05:50:40;;;;;;;12.60;2.63;;;7.00;75.30;;;;;;4940383;29;20035;-88
2021/04/23 05:53:06;;;;;;;15.02;2.58;;;7.10;75.40;;;;;;4961853;28;20032;-88
2021/04/23 05:55:33;;;;;;;15.10;2.70;;;7.10;75.50;;;;;;4946525;28;20497;-86
2021/04/23 05:58:03;;;;;;;13.35;2.83;;;7.10;75.70;;;;;;4927005;28;20486;-86
2021/04/23 06:00:32;;;;;;;14.90;3.00;;;7.10;75.80;;;;;;4974637;28;20063;-87
2021/04/23 06:03:00;;;;;;;19.33;3.47;;;7.10;76.00;;;;;;4939442;28;20043;-87
2021/04/23 06:05:28;;;;;;;20.58;3.63;;;7.20;76.10;;;;;;4943353;29;20071;-86
2021/04/23 06:07:56;;;;;;;17.05;2.65;;;7.20;76.40;;;;;;4936982;29;20068;-85
2021/04/23 06:10:23;;;;;;;23.27;3.40;;;7.20;76.30;;;;;;4930024;29;20038;-86
2021/04/23 06:12:49;;;;;;;15.65;2.80;;;7.30;76.50;;;;;;4934113;28;20028;-88
2021/04/23 06:15:15;;;;;;;18.88;2.85;;;7.30;77.00;;;;;;4941722;29;20032;-88
2021/04/23 06:17:41;;;;;;;19.42;3.13;;;7.30;76.60;;;;;;4923773;29;20042;-87
2021/04/23 06:20:11;;;;;;;24.98;3.17;;;7.30;76.70;;;;;;4923822;28;20046;-87
2021/04/23 06:22:38;;;;;;;18.85;3.15;;;7.30;76.50;;;;;;4936732;29;20035;-86
2021/04/23 06:25:09;;;;;;;14.55;2.70;;;7.30;76.70;;;;;;4920869;29;20227;-87
2021/04/23 06:27:36;;;;;;;16.13;3.17;;;7.30;76.70;;;;;;4932648;29;20028;-86
2021/04/23 06:30:06;;;;;;;14.20;2.65;;;7.40;76.80;;;;;;4931378;29;20040;-87
2021/04/23 06:32:31;;;;;;;17.27;2.58;;;7.40;76.50;;;;;;4921725;29;20030;-87
2021/04/23 06:34:57;;;;;;;21.88;3.40;;;7.40;76.70;;;;;;4918153;29;20051;-87
2021/04/23 06:37:34;;;;;;;21.85;3.33;;;7.50;77.00;;;;;;4919352;29;20831;-87
2021/04/23 06:40:20;;;;;;;16.13;3.30;;;7.50;76.80;;;;;;4917692;29;20040;-86
2021/04/23 06:42:46;;;;;;;18.38;3.38;;;7.50;76.50;;;;;;4941332;29;20024;-86
2021/04/23 06:45:18;;;;;;;16.83;3.20;;;7.60;76.40;;;;;;4915202;29;20386;-87
2021/04/23 06:47:48;;;;;;;16.13;2.92;;;7.60;76.50;;;;;;4934784;29;20043;-88
2021/04/23 06:50:20;;;;;;;21.33;3.45;;;7.60;76.10;;;;;;4917571;29;20036;-86
2021/04/23 06:52:47;;;;;;;18.85;3.25;;;7.60;76.00;;;;;;4958151;28;20118;-88
2021/04/23 06:55:17;;;;;;;18.48;2.88;;;7.60;75.70;;;;;;4919459;29;20481;-87
2021/04/23 06:58:14;;;;;;;14.73;2.67;;;7.70;75.70;;;;;;4929817;29;20038;-85
2021/04/23 07:00:45;;;;;;;27.98;3.13;;;7.70;76.00;;;;;;4910943;29;20222;-88
2021/04/23 07:03:41;;;;;;;14.77;2.75;;;7.70;75.70;;;;;;4941132;28;20504;-86
2021/04/23 07:06:35;;;;;;;18.98;3.15;;;7.80;76.00;;;;;;4961213;28;20047;-88
2021/04/23 07:09:06;;;;;;;18.52;3.08;;;7.80;75.60;;;;;;4960564;28;20032;-87
2021/04/23 07:11:52;;;;;;;15.75;3.35;;;7.80;75.60;;;;;;4928706;29;20070;-87
2021/04/23 07:18:22;;;;;;;16.15;3.38;;;7.90;74.30;;;;;;4932064;29;20492;-89
2021/04/23 07:21:38;;;;;;;15.45;2.53;;;8.00;74.10;;;;;;4925402;29;20067;-87
2021/04/23 07:24:24;;;;;;;21.33;4.10;;;8.00;73.50;;;;;;4954846;29;20030;-87
2021/04/23 07:29:20;;;;;;;17.42;3.47;;;8.00;73.70;;;;;;4941626;28;20051;-67
2021/04/23 07:31:49;;;;;;;11.77;2.50;;;8.10;72.90;;;;;;4943251;28;20028;-65
2021/04/23 07:34:15;;;;;;;15.15;2.67;;;8.10;72.90;;;;;;4942570;28;20094;-66
2021/04/23 07:36:41;;;;;;;12.00;2.20;;;8.10;72.70;;;;;;4943793;28;20031;-66
2021/04/23 07:39:10;;;;;;;17.55;3.42;;;8.10;72.60;;;;;;4944717;28;20452;-66
2021/04/23 07:41:36;;;;;;;14.45;2.30;;;8.20;72.40;;;;;;4944032;28;20106;-65
2021/04/23 07:44:02;;;;;;;16.17;2.72;;;8.20;72.70;;;;;;4941964;28;20114;-64
2021/04/23 07:46:28;;;;;;;15.38;2.88;;;8.30;72.20;;;;;;4938648;28;20027;-67
2021/04/23 07:48:53;;;;;;;14.65;3.22;;;8.30;72.30;;;;;;4940237;28;20359;-66
2021/04/23 07:51:19;;;;;;;11.95;2.75;;;8.40;71.20;;;;;;4940391;28;20039;-65
2021/04/23 07:53:45;;;;;;;11.05;2.47;;;8.40;71.10;;;;;;4941592;28;20547;-66
2021/04/23 07:56:11;;;;;;;14.57;2.33;;;8.40;70.90;;;;;;4943436;28;20110;-67
2021/04/23 07:58:37;;;;;;;9.45;2.85;;;8.50;69.40;;;;;;4940286;28;20075;-65
2021/04/23 08:01:06;;;;;;;23.65;3.95;;;8.50;69.00;;;;;;4939994;28;20027;-64
2021/04/23 08:03:34;;;;;;;11.25;3.05;;;8.50;69.30;;;;;;4937310;28;20050;-63
2021/04/23 08:06:01;;;;;;;14.88;2.45;;;8.50;69.60;;;;;;4939006;28;20027;-65
2021/04/23 08:08:27;;;;;;;13.05;2.92;;;8.60;69.80;;;;;;4945863;28;20094;-64
2021/04/23 08:10:52;;;;;;;13.88;2.75;;;8.60;69.00;;;;;;4947474;28;20035;-65
2021/04/23 08:13:21;;;;;;;16.20;3.10;;;8.70;68.10;;;;;;4944071;29;20408;-65
2021/04/23 08:15:47;;;;;;;14.45;3.22;;;8.80;67.90;;;;;;4946388;28;20114;-63
2021/04/23 08:18:13;;;;;;;14.98;2.70;;;8.90;67.80;;;;;;4945661;28;20039;-63
2021/04/23 08:20:42;;;;;;;11.40;2.55;;;8.90;67.80;;;;;;4945380;28;20035;-65
2021/04/23 08:23:08;;;;;;;15.20;3.20;;;8.90;66.80;;;;;;4937706;28;20576;-65
2021/04/23 08:25:33;;;;;;;17.55;3.30;;;8.90;65.40;;;;;;4940551;28;20421;-64
2021/04/23 08:27:59;;;;;;;12.15;3.17;;;9.00;66.20;;;;;;4943413;28;20039;-65
2021/04/23 08:30:27;;;;;;;15.23;3.13;;;9.00;66.70;;;;;;4943674;28;20389;-65
2021/04/23 08:32:54;;;;;;;13.25;2.35;;;9.10;65.70;;;;;;4943731;28;20050;-66
2021/04/23 08:35:21;;;;;;;18.10;2.53;;;9.10;64.90;;;;;;4944283;28;20043;-66
2021/04/23 08:37:49;;;;;;;10.57;2.85;;;9.10;64.50;;;;;;4944475;28;20035;-66
2021/04/23 08:40:20;;;;;;;10.30;2.20;;;9.10;65.00;;;;;;4944402;28;20043;-65
2021/04/23 08:42:47;;;;;;;14.57;2.60;;;9.10;64.80;;;;;;4957554;28;20024;-67
2021/04/23 08:45:16;;;;;;;9.50;2.42;;;9.10;64.40;;;;;;4944697;28;20027;-66
2021/04/23 08:47:46;;;;;;;9.20;2.35;;;9.10;64.70;;;;;;4944704;28;20027;-66
2021/04/23 08:50:14;;;;;;;12.60;3.10;;;9.10;65.00;;;;;;4944107;28;20062;-64
2021/04/23 08:52:44;;;;;;;15.00;2.63;;;9.20;65.00;;;;;;4945091;28;20046;-66
2021/04/23 08:55:12;;;;;;;13.00;2.85;;;9.20;64.10;;;;;;4945597;29;20043;-66
2021/04/23 08:57:39;;;;;;;13.25;3.00;;;9.30;63.90;;;;;;4942984;28;20031;-66
2021/04/23 09:00:08;;;;;;;10.88;3.03;;;9.20;64.40;;;;;;4944712;28;20039;-66
2021/04/23 09:02:35;;;;;;;15.52;2.55;;;9.30;65.10;;;;;;4944658;28;20038;-63
2021/04/23 09:05:02;;;;;;;10.95;2.58;;;9.30;64.00;;;;;;4943442;28;20027;-65
2021/04/23 09:07:28;;;;;;;14.43;2.75;;;9.40;63.50;;;;;;4944995;28;20027;-67
2021/04/23 09:10:08;;;;;;;11.32;2.72;;;9.40;62.80;;;;;;4945102;28;20162;-64
2021/04/23 09:12:35;;;;;;;7.55;2.00;;;9.40;62.70;;;;;;4963922;28;20027;-66
2021/04/23 09:15:02;;;;;;;12.35;2.67;;;9.50;63.10;;;;;;4944866;28;20159;-66
2021/04/23 09:17:33;;;;;;;11.43;2.88;;;9.50;62.60;;;;;;4943838;28;20443;-65
2021/04/23 09:20:00;;;;;;;14.63;3.50;;;9.50;62.80;;;;;;4945686;28;20383;-66
2021/04/23 09:22:31;;;;;;;13.38;2.65;;;9.60;61.80;;;;;;4947642;28;20345;-66
2021/04/23 09:25:09;;;;;;;10.05;2.50;;;9.60;61.90;;;;;;4944061;28;20032;-66
2021/04/23 09:27:37;;;;;;;14.48;2.53;;;9.70;62.10;;;;;;4942863;28;20421;-65
2021/04/23 09:30:11;;;;;;;11.98;2.53;;;9.80;60.20;;;;;;4944254;28;20079;-64
2021/04/23 09:32:41;;;;;;;11.40;2.30;;;9.90;59.80;;;;;;4945416;28;20063;-63
2021/04/23 09:35:19;;;;;;;13.77;2.70;;;10.00;59.80;;;;;;4945184;28;20104;-65
2021/04/23 09:37:48;;;;;;;20.13;3.25;;;10.00;60.00;;;;;;4943772;28;20526;-66
2021/04/23 09:40:21;;;;;;;9.73;2.90;;;10.10;60.00;;;;;;4941596;28;20050;-65
2021/04/23 09:42:53;;;;;;;14.85;2.75;;;10.10;60.00;;;;;;4943297;28;20063;-63
2021/04/23 09:45:27;;;;;;;12.30;2.30;;;10.10;60.30;;;;;;4942589;28;20028;-65
2021/04/23 09:47:54;;;;;;;11.55;2.38;;;10.20;60.20;;;;;;4938367;28;20346;-66
2021/04/23 09:50:21;;;;;;;9.45;2.42;;;10.30;60.30;;;;;;4938707;28;20039;-65
2021/04/23 09:52:55;;;;;;;14.65;2.45;;;10.30;60.60;;;;;;4938785;28;20042;-66
2021/04/23 09:55:23;;;;;;;9.70;2.60;;;10.30;60.20;;;;;;4958324;28;20126;-65
2021/04/23 09:57:55;;;;;;;11.70;2.67;;;10.30;60.60;;;;;;4940514;28;20497;-65
2021/04/23 10:00:26;;;;;;;13.13;2.47;;;10.30;59.80;;;;;;4936416;28;20030;-66
2021/04/23 10:03:00;;;;;;;13.43;2.55;;;10.40;60.40;;;;;;4940463;29;20091;-65
2021/04/23 10:05:35;;;;;;;10.68;2.47;;;10.40;60.00;;;;;;4942621;28;20072;-66
2021/04/23 10:08:09;;;;;;;11.20;2.50;;;10.40;58.40;;;;;;4941587;28;20042;-65
2021/04/23 10:10:40;;;;;;;13.10;3.28;;;10.50;58.80;;;;;;4943023;28;20047;-64
2021/04/23 10:13:08;;;;;;;16.90;3.08;;;10.50;59.80;;;;;;4941818;28;20549;-65
2021/04/23 10:15:36;;;;;;;13.27;3.03;;;10.50;59.70;;;;;;4941633;28;20039;-66
2021/04/23 10:18:07;;;;;;;13.00;2.67;;;10.60;59.80;;;;;;4940736;28;20062;-66
2021/04/23 10:20:36;;;;;;;15.30;2.65;;;10.70;60.20;;;;;;4942318;28;20434;-64
2021/04/23 10:23:05;;;;;;;17.52;2.80;;;10.70;60.00;;;;;;4942842;28;20070;-66
2021/04/23 10:25:32;;;;;;;13.40;3.00;;;10.70;60.20;;;;;;4942958;28;20035;-65
2021/04/23 10:28:00;;;;;;;12.10;2.33;;;10.70;60.20;;;;;;4943477;28;20059;-66
2021/04/23 10:30:28;;;;;;;13.77;3.15;;;10.90;59.80;;;;;;4943930;28;20101;-65
2021/04/23 10:32:57;;;;;;;15.38;3.28;;;10.90;58.50;;;;;;4938491;28;20117;-66
2021/04/23 10:35:23;;;;;;;12.10;2.42;;;10.90;58.80;;;;;;4937984;28;20028;-66
2021/04/23 10:37:50;;;;;;;18.42;2.70;;;10.90;58.90;;;;;;4937171;28;20065;-65
2021/04/23 10:40:22;;;;;;;13.30;3.67;;;10.90;59.40;;;;;;4940499;28;20035;-67
2021/04/23 10:42:53;;;;;;;15.75;3.65;;;11.00;59.70;;;;;;4941459;28;20031;-66
2021/04/23 10:45:25;;;;;;;16.13;3.40;;;11.00;60.30;;;;;;4942597;28;20039;-67
2021/04/23 10:47:57;;;;;;;10.90;2.80;;;11.00;60.20;;;;;;4940511;28;20069;-66
2021/04/23 10:50:24;;;;;;;;;;;11.10;60.80;;;;;;4939799;28;20042;-65
2021/04/23 10:53:07;;;;;;;12.40;2.97;;;11.30;59.10;;;;;;4941068;28;20072;-66
2021/04/23 10:56:06;;;;;;;20.95;4.70;;;11.30;58.60;;;;;;4942093;28;20054;-67
2021/04/23 10:58:32;;;;;;;8.93;2.35;;;11.30;60.40;;;;;;4960469;28;20730;-68
2021/04/23 11:01:18;;;;;;;16.10;2.88;;;11.40;57.80;;;;;;4944500;28;20102;-70
2021/04/23 11:04:07;;;;;;;14.38;3.00;;;11.50;57.20;;;;;;4940592;29;20051;-68
2021/04/23 11:06:35;;;;;;;12.23;2.50;;;11.60;60.20;;;;;;4935013;28;20529;-65
2021/04/23 11:09:02;;;;;;;10.18;2.03;;;11.80;57.50;;;;;;4940048;28;20062;-66
2021/04/23 11:11:36;;;;;;;9.98;2.40;;;11.80;58.40;;;;;;4939194;28;20039;-66
2021/04/23 11:14:19;;;;;;;12.63;2.78;;;12.10;61.60;;;;;;4943744;29;20035;-67
2021/04/23 11:16:46;;;;;;;10.25;3.08;;;12.90;59.50;;;;;;4943442;29;20031;-65
2021/04/23 11:19:18;;;;;;;10.80;3.00;;;13.50;54.70;;;;;;4954807;28;20442;-67
2021/04/23 11:21:46;;;;;;;9.60;2.80;;;14.10;55.50;;;;;;4944161;29;20057;-67
2021/04/23 11:24:15;;;;;;;11.55;2.63;;;15.40;53.30;;;;;;4943023;29;20046;-65
2021/04/23 11:27:01;;;;;;;135.00;76.55;;;16.60;48.10;;;;;;4941706;28;20082;-63
2021/04/23 11:29:48;;;;;;;88.18;43.15;;;17.00;44.50;;;;;;4940633;28;20042;-65
2021/04/23 11:32:24;;;;;;;8.40;2.97;;;17.40;44.50;;;;;;4943226;28;20078;-68
2021/04/23 11:34:53;;;;;;;10.43;2.65;;;17.80;42.50;;;;;;4943432;29;20039;-66
2021/04/23 11:37:21;;;;;;;13.70;3.47;;;18.30;41.00;;;;;;4943702;28;20027;-65
2021/04/23 11:39:49;;;;;;;14.00;3.13;;;18.70;39.50;;;;;;4940932;29;20501;-66
2021/04/23 11:42:15;;;;;;;10.65;2.78;;;18.80;40.10;;;;;;4945963;28;20513;-66
2021/04/23 11:45:01;;;;;;;8.40;3.03;;;18.30;37.90;;;;;;4946257;28;20020;-66
2021/04/23 11:47:27;;;;;;;12.27;2.85;;;17.70;40.50;;;;;;4946403;28;20116;-65
2021/04/23 11:50:16;;;;;;;9.45;2.38;;;17.30;40.10;;;;;;4947250;28;20035;-66
2021/04/23 11:52:45;;;;;;;14.05;2.58;;;17.50;43.50;;;;;;4950263;28;20110;-64
2021/04/23 11:55:24;;;;;;;12.30;2.80;;;17.70;42.40;;;;;;4947570;29;20039;-65
2021/04/23 11:57:52;;;;;;;11.55;2.97;;;17.60;40.90;;;;;;4949083;28;20090;-65
2021/04/23 12:00:22;;;;;;;11.45;3.30;;;17.40;41.50;;;;;;4945860;28;20035;-64
2021/04/23 12:02:57;;;;;;;13.90;3.15;;;17.20;42.10;;;;;;4948345;28;20508;-65
2021/04/23 12:05:30;;;;;;;8.45;1.95;;;16.80;43.10;;;;;;4948875;28;20053;-66
2021/04/23 12:08:12;;;;;;;11.20;2.60;;;16.70;43.70;;;;;;4947494;28;20023;-66
2021/04/23 12:11:00;;;;;;;8.48;2.42;;;16.80;43.00;;;;;;4948797;28;20035;-64
2021/04/23 12:13:27;;;;;;;10.75;2.90;;;16.50;41.60;;;;;;4948857;29;20047;-65
2021/04/23 12:15:57;;;;;;;16.85;2.85;;;16.50;42.30;;;;;;4949208;28;20039;-65
2021/04/23 12:18:23;;;;;;;13.43;3.08;;;16.50;43.30;;;;;;4949108;28;20120;-66
2021/04/23 12:20:53;;;;;;;14.90;3.10;;;16.50;42.10;;;;;;4950447;28;20054;-65
2021/04/23 12:23:31;;;;;;;11.85;2.70;;;16.30;44.60;;;;;;4948978;28;20046;-67
2021/04/23 12:26:01;;;;;;;10.77;2.88;;;16.40;43.70;;;;;;4949198;28;20500;-67
2021/04/23 12:28:47;;;;;;;13.05;2.72;;;16.60;45.70;;;;;;4944881;28;20042;-65
2021/04/23 12:31:21;;;;;;;11.75;2.88;;;17.10;45.40;;;;;;4947268;29;20127;-65
2021/04/23 12:33:55;;;;;;;9.52;2.70;;;17.60;42.40;;;;;;4947333;28;20622;-66
2021/04/23 12:36:24;;;;;;;16.83;3.80;;;17.40;40.20;;;;;;4945416;28;20154;-65
2021/04/23 12:39:02;;;;;;;9.70;2.55;;;16.90;43.10;;;;;;4945824;28;20034;-66
2021/04/23 12:41:37;;;;;;;10.68;2.30;;;17.00;43.50;;;;;;4950181;28;20043;-64
2021/04/23 12:44:12;;;;;;;13.70;3.17;;;17.20;43.60;;;;;;4949103;29;20027;-64
2021/04/23 12:46:46;;;;;;;11.55;2.30;;;17.60;40.50;;;;;;4942731;28;20027;-66
2021/04/23 12:49:18;;;;;;;10.95;2.30;;;17.90;40.50;;;;;;4942906;28;20031;-65
2021/04/23 12:51:54;;;;;;;10.85;2.90;;;17.80;37.90;;;;;;4945372;28;20081;-65
2021/04/23 12:54:29;;;;;;;10.60;2.65;;;17.60;38.20;;;;;;4943328;28;20439;-64
2021/04/23 12:56:56;;;;;;;8.23;2.47;;;17.60;40.50;;;;;;4941598;28;20042;-64
2021/04/23 12:59:39;;;;;;;10.00;2.33;;;17.70;41.40;;;;;;4941290;28;20114;-67
2021/04/23 13:02:07;;;;;;;9.88;2.10;;;17.60;39.90;;;;;;4932914;28;20426;-66
2021/04/23 13:04:34;;;;;;;11.75;2.80;;;16.80;40.00;;;;;;4944529;29;20032;-66